createdAt,value
2022-11-24T00:01:20.391Z,7.04
2022-11-24T00:03:58.566Z,6.98
2022-11-24T00:06:26.292Z,7.00
2022-11-24T00:08:53.976Z,6.95
2022-11-24T00:11:23.710Z,6.95
2022-11-24T00:13:51.090Z,6.95
2022-11-24T00:16:27.163Z,6.85
2022-11-24T00:18:56.340Z,6.81
2022-11-24T00:21:23.835Z,6.77
2022-11-24T00:23:51.593Z,6.66
2022-11-24T00:26:21.095Z,6.58
2022-11-24T00:28:49.838Z,6.54
2022-11-24T00:31:24.438Z,6.47
2022-11-24T00:33:53.085Z,6.49
2022-11-24T00:36:21.884Z,6.47
2022-11-24T00:38:53.085Z,6.49
2022-11-24T00:41:20.193Z,6.50
2022-11-24T00:43:46.964Z,6.54
2022-11-24T00:46:14.074Z,6.52
2022-11-24T00:48:41.472Z,6.46
2022-11-24T00:51:10.960Z,6.47
2022-11-24T00:53:38.891Z,6.42
2022-11-24T00:56:06.834Z,6.39
2022-11-24T00:58:34.815Z,6.30
2022-11-24T01:01:11.664Z,6.39
2022-11-24T01:03:39.136Z,6.41
2022-11-24T01:06:15.114Z,6.39
2022-11-24T01:08:42.615Z,6.44
2022-11-24T01:11:14.270Z,6.36
2022-11-24T01:13:52.239Z,6.29
2022-11-24T01:16:22.101Z,6.28
2022-11-24T01:18:49.507Z,6.24
2022-11-24T01:21:17.501Z,6.22
2022-11-24T01:23:44.487Z,6.24
2022-11-24T01:26:14.524Z,6.26
2022-11-24T01:28:46.593Z,6.26
2022-11-24T01:31:15.916Z,6.25
2022-11-24T01:33:43.248Z,6.27
2022-11-24T01:36:10.223Z,6.30
2022-11-24T01:38:37.058Z,6.31
2022-11-24T01:41:08.500Z,6.30
2022-11-24T01:43:36.940Z,6.27
2022-11-24T01:46:41.403Z,6.27
2022-11-24T01:49:20.283Z,6.34
2022-11-24T01:51:54.831Z,6.38
2022-11-24T01:54:26.607Z,6.40
2022-11-24T01:56:58.719Z,6.40
2022-11-24T01:59:26.780Z,6.41
2022-11-24T02:01:54.938Z,6.41
2022-11-24T02:04:25.957Z,6.38
2022-11-24T02:06:54.404Z,6.33
2022-11-24T02:09:27.459Z,6.29
2022-11-24T02:11:55.463Z,6.26
2022-11-24T02:14:24.065Z,6.26
2022-11-24T02:16:51.812Z,6.25
2022-11-24T02:19:33.598Z,6.22
2022-11-24T02:22:01.662Z,6.20
2022-11-24T02:25:06.405Z,6.04
2022-11-24T02:27:33.359Z,6.10
2022-11-24T02:30:00.340Z,6.12
2022-11-24T02:32:28.470Z,6.14
2022-11-24T02:35:07.660Z,6.10
2022-11-24T02:37:34.490Z,6.20
2022-11-24T02:40:01.309Z,6.25
2022-11-24T02:42:36.514Z,6.27
2022-11-24T02:45:03.734Z,6.32
2022-11-24T02:47:31.399Z,6.41
2022-11-24T02:49:58.247Z,6.47
2022-11-24T02:52:25.039Z,6.42
2022-11-24T02:54:51.837Z,6.40
2022-11-24T02:57:18.635Z,6.35
2022-11-24T02:59:46.735Z,6.36
2022-11-24T03:02:13.602Z,6.41
2022-11-24T03:04:40.430Z,6.46
2022-11-24T03:07:07.430Z,6.52
2022-11-24T03:09:34.237Z,6.55
2022-11-24T03:12:01.015Z,6.58
2022-11-24T03:14:27.805Z,6.62
2022-11-24T03:16:54.622Z,6.61
2022-11-24T03:19:21.413Z,6.60
2022-11-24T03:21:48.172Z,6.60
2022-11-24T03:24:14.991Z,6.59
2022-11-24T03:26:42.329Z,6.57
2022-11-24T03:29:09.423Z,6.53
2022-11-24T03:31:36.248Z,6.55
2022-11-24T03:34:03.295Z,6.53
2022-11-24T03:36:30.101Z,6.49
2022-11-24T03:38:56.908Z,6.46
2022-11-24T03:41:23.688Z,6.47
2022-11-24T03:43:50.425Z,6.48
2022-11-24T03:46:17.625Z,6.45
2022-11-24T03:48:44.462Z,6.41
2022-11-24T03:51:11.646Z,6.38
2022-11-24T03:53:38.470Z,6.40
2022-11-24T03:56:05.484Z,6.42
2022-11-24T03:58:32.426Z,6.44
2022-11-24T04:00:59.305Z,6.39
2022-11-24T04:03:27.344Z,6.39
2022-11-24T04:05:54.280Z,6.36
2022-11-24T04:08:21.197Z,6.30
2022-11-24T04:10:53.048Z,6.29
2022-11-24T04:13:21.817Z,6.33
2022-11-24T04:15:48.752Z,6.35
2022-11-24T04:18:15.624Z,6.38
2022-11-24T04:20:42.920Z,6.41
2022-11-24T04:23:10.987Z,6.34
2022-11-24T04:25:37.773Z,6.31
2022-11-24T04:28:04.752Z,6.32
2022-11-24T04:30:31.871Z,6.32
2022-11-24T04:32:59.053Z,6.35
2022-11-24T04:35:25.854Z,6.36
2022-11-24T04:37:52.672Z,6.34
2022-11-24T04:40:20.515Z,6.34
2022-11-24T04:42:56.695Z,6.32
2022-11-24T04:45:24.128Z,6.31
2022-11-24T04:47:51.164Z,6.30
2022-11-24T04:50:18.603Z,6.31
2022-11-24T04:52:45.551Z,6.32
2022-11-24T04:55:12.447Z,6.30
2022-11-24T04:57:39.649Z,6.26
2022-11-24T05:00:08.097Z,6.22
2022-11-24T05:02:36.063Z,6.21
2022-11-24T05:05:02.957Z,6.22
2022-11-24T05:07:30.521Z,6.24
2022-11-24T05:10:15.805Z,6.34
2022-11-24T05:12:47.050Z,6.30
2022-11-24T05:15:16.824Z,6.33
2022-11-24T05:17:43.566Z,6.42
2022-11-24T05:20:10.612Z,6.51
2022-11-24T05:22:37.412Z,6.57
2022-11-24T05:25:04.831Z,6.56
2022-11-24T05:27:31.610Z,6.55
2022-11-24T05:29:58.537Z,6.47
2022-11-24T05:32:26.914Z,6.48
2022-11-24T05:34:54.948Z,6.53
2022-11-24T05:37:22.162Z,6.55
2022-11-24T05:39:48.939Z,6.55
2022-11-24T05:42:34.199Z,6.52
2022-11-24T05:45:01.101Z,6.41
2022-11-24T05:47:30.036Z,6.42
2022-11-24T05:49:56.913Z,6.44
2022-11-24T05:52:23.859Z,6.43
2022-11-24T05:54:50.588Z,6.41
2022-11-24T05:57:18.099Z,6.33
2022-11-24T05:59:45.647Z,6.28
2022-11-24T06:02:14.259Z,6.30
2022-11-24T06:04:41.368Z,6.33
2022-11-24T06:07:09.330Z,6.35
2022-11-24T06:09:40.290Z,6.33
2022-11-24T06:12:07.963Z,6.36
2022-11-24T06:14:35.534Z,6.35
2022-11-24T06:17:03.369Z,6.32
2022-11-24T06:19:30.198Z,6.39
2022-11-24T06:22:00.020Z,6.30
2022-11-24T06:24:27.855Z,6.29
2022-11-24T06:26:54.642Z,6.34
2022-11-24T06:29:22.551Z,6.40
2022-11-24T06:31:49.410Z,6.31
2022-11-24T06:34:16.178Z,6.34
2022-11-24T06:36:45.208Z,6.26
2022-11-24T06:39:11.973Z,6.17
2022-11-24T06:41:38.723Z,6.19
2022-11-24T06:44:05.732Z,6.24
2022-11-24T06:46:33.019Z,6.27
2022-11-24T06:49:00.658Z,6.30
2022-11-24T06:51:28.070Z,6.32
2022-11-24T06:53:55.452Z,6.28
2022-11-24T06:56:22.542Z,6.28
2022-11-24T06:58:51.229Z,6.30
2022-11-24T07:01:27.028Z,6.32
2022-11-24T07:03:55.465Z,6.34
2022-11-24T07:06:23.957Z,6.26
2022-11-24T07:08:51.518Z,6.22
2022-11-24T07:11:23.562Z,6.18
2022-11-24T07:13:56.492Z,6.22
2022-11-24T07:16:27.053Z,6.29
2022-11-24T07:18:55.228Z,6.36
2022-11-24T07:21:23.693Z,6.36
2022-11-24T07:23:52.009Z,6.38
2022-11-24T07:26:19.641Z,6.43
2022-11-24T07:28:46.971Z,6.50
2022-11-24T07:31:15.896Z,6.55
2022-11-24T07:33:42.734Z,6.67
2022-11-24T07:36:10.082Z,6.65
2022-11-24T07:38:36.980Z,6.55
2022-11-24T07:41:08.540Z,6.55
2022-11-24T07:43:36.914Z,6.64
2022-11-24T07:46:05.528Z,6.68
2022-11-24T07:48:32.491Z,6.76
2022-11-24T07:51:04.568Z,6.76
2022-11-24T07:53:33.243Z,6.79
2022-11-24T07:56:03.209Z,6.81
2022-11-24T07:58:33.133Z,6.81
2022-11-24T08:01:00.617Z,6.86
2022-11-24T08:03:27.969Z,6.86
2022-11-24T08:06:23.180Z,6.85
2022-11-24T08:08:48.962Z,6.93
2022-11-24T08:11:18.288Z,7.00
2022-11-24T08:13:46.000Z,7.10
2022-11-24T08:16:18.287Z,7.13
2022-11-24T08:18:55.516Z,7.14
2022-11-24T08:21:23.663Z,7.22
2022-11-24T08:23:54.192Z,7.30
2022-11-24T08:26:21.010Z,7.41
2022-11-24T08:28:50.705Z,7.46
2022-11-24T08:31:19.244Z,7.53
2022-11-24T08:33:46.782Z,7.61
2022-11-24T08:36:18.527Z,7.60
2022-11-24T08:38:47.260Z,7.66
2022-11-24T08:41:18.246Z,7.64
2022-11-24T08:43:45.293Z,7.77
2022-11-24T08:46:17.615Z,7.82
2022-11-24T08:48:48.954Z,7.92
2022-11-24T08:51:18.332Z,7.93
2022-11-24T08:53:45.780Z,7.90
2022-11-24T08:56:14.036Z,7.91
2022-11-24T08:58:41.814Z,7.93
2022-11-24T09:01:30.318Z,7.90
2022-11-24T09:03:58.795Z,7.92
2022-11-24T09:06:30.299Z,7.98
2022-11-24T09:08:57.626Z,8.15
2022-11-24T09:11:25.835Z,8.15
2022-11-24T09:13:53.110Z,8.27
2022-11-24T09:16:22.610Z,8.34
2022-11-24T09:18:54.767Z,8.43
2022-11-24T09:21:22.293Z,8.49
2022-11-24T09:23:51.494Z,8.57
2022-11-24T09:26:30.465Z,8.60
2022-11-24T09:28:58.353Z,8.66
2022-11-24T09:31:28.135Z,8.72
2022-11-24T09:34:00.787Z,8.54
2022-11-24T09:36:28.472Z,8.58
2022-11-24T09:38:56.468Z,8.60
2022-11-24T09:41:46.140Z,8.63
2022-11-24T09:45:00.752Z,8.60
2022-11-24T09:47:46.312Z,8.64
2022-11-24T09:50:22.356Z,8.70
2022-11-24T09:53:13.402Z,8.65
2022-11-24T09:55:50.107Z,8.71
2022-11-24T09:58:38.677Z,8.58
2022-11-24T10:01:17.279Z,8.63
2022-11-24T10:03:52.055Z,8.57
2022-11-24T10:06:31.797Z,8.61
2022-11-24T10:09:40.577Z,8.67
2022-11-24T10:12:25.840Z,8.85
2022-11-24T10:15:21.772Z,9.13
2022-11-24T10:18:13.252Z,8.93
2022-11-24T10:20:51.193Z,9.02
2022-11-24T10:23:41.647Z,9.00
2022-11-24T10:26:40.117Z,9.08
2022-11-24T10:29:53.231Z,8.92
2022-11-24T10:32:23.435Z,8.99
2022-11-24T10:34:50.912Z,8.84
2022-11-24T10:37:35.598Z,8.81
2022-11-24T10:40:10.843Z,8.91
2022-11-24T10:42:49.184Z,9.02
2022-11-24T10:45:22.961Z,9.00
2022-11-24T10:47:50.771Z,9.10
2022-11-24T10:50:22.925Z,8.99
2022-11-24T10:53:05.669Z,8.81
2022-11-24T10:55:52.673Z,8.64
2022-11-24T10:58:36.039Z,8.85
2022-11-24T11:01:13.755Z,8.90
2022-11-24T11:03:58.238Z,8.84
2022-11-24T11:06:31.391Z,8.85
2022-11-24T11:09:19.949Z,8.74
2022-11-24T11:11:49.379Z,8.76
2022-11-24T11:14:35.635Z,8.63
2022-11-24T11:17:03.529Z,8.68
2022-11-24T11:19:50.505Z,8.59
2022-11-24T11:22:35.176Z,8.69
2022-11-24T11:25:10.701Z,8.66
2022-11-24T11:27:39.458Z,8.72
2022-11-24T11:36:17.540Z,8.46
2022-11-24T11:38:47.113Z,8.48
2022-11-24T11:41:37.161Z,8.32
2022-11-24T11:44:23.003Z,8.23
2022-11-24T11:46:49.811Z,8.31
2022-11-24T11:49:16.783Z,8.36
2022-11-24T11:51:53.563Z,8.37
2022-11-24T11:54:48.094Z,8.27
2022-11-24T11:57:53.666Z,8.39
2022-11-24T12:00:22.392Z,8.47
2022-11-24T12:03:26.888Z,8.39
2022-11-24T12:06:14.303Z,8.31
2022-11-24T12:09:22.701Z,8.45
2022-11-24T12:12:01.381Z,8.37
2022-11-24T12:14:58.513Z,8.41
2022-11-24T12:17:54.489Z,8.51
2022-11-24T12:20:33.334Z,8.50
2022-11-24T12:23:27.459Z,8.47
2022-11-24T12:26:14.492Z,8.62
2022-11-24T12:29:10.470Z,8.66
2022-11-24T12:31:45.410Z,8.55
2022-11-24T12:34:27.383Z,8.63
2022-11-24T12:37:18.961Z,8.66
2022-11-24T12:39:54.619Z,8.70
2022-11-24T12:42:21.413Z,8.66
2022-11-24T12:45:30.178Z,8.54
2022-11-24T12:48:19.935Z,8.52
2022-11-24T12:50:47.215Z,8.67
2022-11-24T12:53:34.736Z,8.59
2022-11-24T12:56:30.720Z,8.59
2022-11-24T12:59:09.595Z,8.57
2022-11-24T13:01:47.284Z,8.67
2022-11-24T13:04:29.686Z,8.56
2022-11-24T13:07:17.586Z,8.53
2022-11-24T13:10:34.661Z,8.50
2022-11-24T13:13:10.462Z,8.53
2022-11-24T13:19:02.745Z,8.65
2022-11-24T13:21:42.964Z,8.67
2022-11-24T13:24:20.061Z,8.75
2022-11-24T13:26:50.200Z,8.82
2022-11-24T13:29:52.188Z,8.78
2022-11-24T13:32:19.121Z,8.80
2022-11-24T13:34:46.015Z,8.90
2022-11-24T13:37:31.808Z,8.89
2022-11-24T13:40:14.680Z,8.78
2022-11-24T13:42:57.402Z,8.73
2022-11-24T13:45:49.893Z,8.58
2022-11-24T13:48:20.098Z,8.55
2022-11-24T13:50:54.215Z,8.58
2022-11-24T13:53:45.379Z,8.49
2022-11-24T13:56:18.015Z,8.54
2022-11-24T13:58:52.182Z,8.53
2022-11-24T14:01:22.684Z,8.53
2022-11-24T14:07:02.407Z,8.59
2022-11-24T14:09:32.073Z,8.48
2022-11-24T14:12:24.084Z,8.40
2022-11-24T14:14:53.876Z,8.36
2022-11-24T14:17:27.854Z,8.29
2022-11-24T14:19:56.617Z,8.29
2022-11-24T14:22:41.519Z,8.25
2022-11-24T14:25:20.485Z,8.33
2022-11-24T14:27:47.463Z,8.42
2022-11-24T14:30:14.178Z,8.45
2022-11-24T14:33:01.632Z,8.39
2022-11-24T14:35:34.232Z,8.33
2022-11-24T14:38:04.434Z,8.21
2022-11-24T14:40:41.078Z,8.14
2022-11-24T14:43:19.654Z,8.09
2022-11-24T14:45:52.986Z,8.11
2022-11-24T14:48:23.405Z,7.79
2022-11-24T14:50:50.784Z,8.02
2022-11-24T14:53:25.807Z,7.85
2022-11-24T14:56:10.926Z,7.74
2022-11-24T14:58:42.018Z,7.83
2022-11-24T15:01:19.975Z,7.79
2022-11-24T15:04:11.026Z,7.90
2022-11-24T15:06:41.184Z,7.94
2022-11-24T15:09:20.027Z,8.02
2022-11-24T15:11:46.994Z,8.02
2022-11-24T15:14:34.206Z,7.94
2022-11-24T15:17:01.642Z,8.06
2022-11-24T15:19:34.247Z,8.07
2022-11-24T15:22:03.517Z,8.05
2022-11-24T15:24:31.579Z,7.97
2022-11-24T15:27:01.610Z,7.94
2022-11-24T15:29:28.491Z,7.96
2022-11-24T15:31:55.364Z,7.94
2022-11-24T15:34:22.273Z,7.98
2022-11-24T15:36:57.122Z,8.00
2022-11-24T15:39:23.972Z,8.00
2022-11-24T15:41:50.819Z,8.01
2022-11-24T15:44:17.677Z,8.05
2022-11-24T15:46:44.543Z,8.00
2022-11-24T15:49:11.506Z,8.00
2022-11-24T15:51:43.281Z,7.95
2022-11-24T15:54:14.819Z,7.97
2022-11-24T15:56:42.162Z,7.94
2022-11-24T15:59:20.685Z,7.94
2022-11-24T16:01:50.714Z,7.99
2022-11-24T16:04:17.800Z,7.98
2022-11-24T16:06:45.993Z,7.94
2022-11-24T16:09:17.381Z,7.97
2022-11-24T16:11:44.194Z,8.00
2022-11-24T16:14:12.084Z,7.98
2022-11-24T16:16:40.747Z,7.98
2022-11-24T16:19:08.947Z,7.97
2022-11-24T16:21:36.018Z,7.92
2022-11-24T16:24:02.908Z,7.83
2022-11-24T16:26:29.685Z,7.81
2022-11-24T16:28:56.457Z,7.83
2022-11-24T16:31:24.148Z,7.83
2022-11-24T16:33:52.161Z,7.81
2022-11-24T16:36:19.080Z,7.80
2022-11-24T16:38:45.850Z,7.78
2022-11-24T16:41:13.131Z,7.74
2022-11-24T16:43:40.176Z,7.73
2022-11-24T16:46:17.248Z,7.69
2022-11-24T16:48:45.627Z,7.67
2022-11-24T16:51:13.683Z,7.62
2022-11-24T16:53:40.985Z,7.61
2022-11-24T16:56:08.809Z,7.53
2022-11-24T16:58:38.879Z,7.51
2022-11-24T17:01:07.388Z,7.51
2022-11-24T17:03:37.321Z,7.53
2022-11-24T17:06:06.732Z,7.54
2022-11-24T17:08:39.388Z,7.54
2022-11-24T17:11:17.880Z,7.51
2022-11-24T17:13:46.009Z,7.55
2022-11-24T17:16:15.058Z,7.50
2022-11-24T17:18:42.358Z,7.51
2022-11-24T17:21:16.780Z,7.52
2022-11-24T17:23:44.206Z,7.53
2022-11-24T17:26:16.693Z,7.44
2022-11-24T17:28:44.044Z,7.51
2022-11-24T17:31:32.304Z,7.43
2022-11-24T17:34:00.547Z,7.49
2022-11-24T17:36:29.826Z,7.48
2022-11-24T17:38:58.601Z,7.44
2022-11-24T17:41:25.401Z,7.44
2022-11-24T17:43:56.760Z,7.42
2022-11-24T17:46:28.515Z,7.42
2022-11-24T17:48:55.912Z,7.44
2022-11-24T17:51:24.939Z,7.45
2022-11-24T17:53:53.577Z,7.45
2022-11-24T17:56:27.870Z,7.38
2022-11-24T17:58:56.156Z,7.39
2022-11-24T18:01:23.744Z,7.38
2022-11-24T18:03:53.719Z,7.35
2022-11-24T18:06:25.443Z,7.33
2022-11-24T18:08:53.264Z,7.29
2022-11-24T18:11:30.218Z,7.27
2022-11-24T18:14:02.111Z,7.27
2022-11-24T18:16:32.206Z,7.30
2022-11-24T18:19:08.688Z,7.34
2022-11-24T18:21:37.768Z,7.40
2022-11-24T18:24:04.705Z,7.42
2022-11-24T18:26:31.576Z,7.44
2022-11-24T18:29:03.142Z,7.46
2022-11-24T18:31:45.786Z,7.52
2022-11-24T18:34:12.581Z,7.54
2022-11-24T18:36:39.420Z,7.59
2022-11-24T18:39:08.093Z,7.63
2022-11-24T18:41:35.623Z,7.70
2022-11-24T18:44:03.179Z,7.75
2022-11-24T18:46:30.055Z,7.81
2022-11-24T18:49:00.092Z,7.85
2022-11-24T18:51:27.520Z,7.87
2022-11-24T18:53:54.818Z,7.90
2022-11-24T18:56:21.600Z,7.93
2022-11-24T18:58:48.396Z,7.93
2022-11-24T19:01:20.733Z,7.91
2022-11-24T19:03:49.941Z,7.95
2022-11-24T19:06:19.685Z,7.99
2022-11-24T19:08:47.133Z,7.99
2022-11-24T19:11:25.944Z,8.00
2022-11-24T19:13:53.074Z,8.03
2022-11-24T19:16:22.762Z,8.07
2022-11-24T19:18:53.952Z,8.10
2022-11-24T19:21:21.878Z,8.13
2022-11-24T19:23:49.413Z,8.15
2022-11-24T19:26:16.582Z,8.19
2022-11-24T19:28:43.656Z,8.18
2022-11-24T19:31:13.062Z,8.12
2022-11-24T19:33:40.217Z,8.12
2022-11-24T19:36:19.661Z,8.12
2022-11-24T19:38:51.418Z,8.14
2022-11-24T19:41:22.017Z,8.20
2022-11-24T19:43:49.197Z,8.23
2022-11-24T19:46:17.837Z,8.21
2022-11-24T19:48:47.344Z,8.19
2022-11-24T19:51:19.515Z,8.18
2022-11-24T19:53:46.670Z,8.17
2022-11-24T19:56:19.127Z,8.15
2022-11-24T19:58:47.076Z,8.14
2022-11-24T20:01:18.681Z,8.12
2022-11-24T20:03:47.670Z,8.14
2022-11-24T20:06:15.565Z,8.15
2022-11-24T20:08:43.334Z,8.17
2022-11-24T20:11:16.082Z,8.14
2022-11-24T20:13:44.770Z,8.15
2022-11-24T20:16:17.635Z,8.16
2022-11-24T20:18:46.459Z,8.16
2022-11-24T20:21:15.263Z,8.19
2022-11-24T20:23:43.155Z,8.19
2022-11-24T20:26:13.175Z,8.19
2022-11-24T20:28:40.242Z,8.21
2022-11-24T20:31:11.444Z,8.23
2022-11-24T20:33:39.390Z,8.23
2022-11-24T20:36:19.821Z,8.17
2022-11-24T20:38:48.467Z,8.17
2022-11-24T20:41:18.102Z,8.13
2022-11-24T20:43:46.422Z,8.12
2022-11-24T20:46:19.928Z,8.11
2022-11-24T20:48:46.945Z,8.13
2022-11-24T20:51:21.545Z,8.09
2022-11-24T20:53:49.602Z,8.12
2022-11-24T20:56:19.127Z,8.11
2022-11-24T20:58:47.027Z,8.12
2022-11-24T21:01:21.996Z,8.05
2022-11-24T21:03:56.585Z,8.13
2022-11-24T21:06:24.067Z,8.16
2022-11-24T21:08:51.113Z,8.16
2022-11-24T21:11:19.112Z,8.16
2022-11-24T21:13:47.590Z,8.15
2022-11-24T21:16:23.835Z,8.12
2022-11-24T21:18:52.971Z,8.17
2022-11-24T21:21:24.548Z,8.16
2022-11-24T21:23:51.963Z,8.20
2022-11-24T21:26:19.583Z,8.22
2022-11-24T21:28:47.450Z,8.24
2022-11-24T21:31:16.972Z,8.25
2022-11-24T21:33:49.421Z,8.27
2022-11-24T21:36:19.212Z,8.27
2022-11-24T21:38:59.407Z,8.28
2022-11-24T21:41:27.912Z,8.31
2022-11-24T21:43:58.332Z,8.34
2022-11-24T21:46:25.488Z,8.32
2022-11-24T21:48:52.227Z,8.32
2022-11-24T21:51:21.013Z,8.28
2022-11-24T21:53:48.622Z,8.27
2022-11-24T21:56:18.318Z,8.28
2022-11-24T21:58:55.626Z,8.25
2022-11-24T22:01:24.768Z,8.27
2022-11-24T22:03:51.810Z,8.25
2022-11-24T22:06:20.148Z,8.22
2022-11-24T22:08:50.435Z,8.19
2022-11-24T22:11:20.094Z,8.21
2022-11-24T22:13:47.311Z,8.19
2022-11-24T22:16:17.001Z,8.12
2022-11-24T22:18:44.845Z,8.03
2022-11-24T22:21:16.770Z,7.98
2022-11-24T22:23:44.364Z,7.95
2022-11-24T22:26:17.124Z,7.93
2022-11-24T22:28:45.256Z,7.91
2022-11-24T22:31:21.240Z,7.87
2022-11-24T22:33:49.514Z,7.89
2022-11-24T22:36:17.950Z,7.88
2022-11-24T22:38:44.750Z,7.86
2022-11-24T22:41:14.110Z,7.82
2022-11-24T22:43:42.270Z,7.75
2022-11-24T22:46:12.204Z,7.69
2022-11-24T22:48:42.365Z,7.67
2022-11-24T22:51:16.969Z,7.66
2022-11-24T22:53:48.766Z,7.63
2022-11-24T22:56:16.499Z,7.69
2022-11-24T22:58:43.520Z,7.76
2022-11-24T23:01:21.721Z,7.78
2022-11-24T23:03:49.445Z,7.89
2022-11-24T23:06:21.454Z,7.90
2022-11-24T23:08:48.763Z,7.94
2022-11-24T23:11:18.062Z,7.97
2022-11-24T23:13:45.091Z,8.03
2022-11-24T23:16:14.901Z,8.03
2022-11-24T23:18:42.633Z,8.06
2022-11-24T23:21:16.693Z,8.10
2022-11-24T23:23:44.367Z,8.13
2022-11-24T23:26:20.082Z,8.17
2022-11-24T23:28:46.925Z,8.15
2022-11-24T23:31:16.335Z,8.11
2022-11-24T23:33:43.507Z,8.17
2022-11-24T23:36:15.716Z,8.12
2022-11-24T23:38:42.642Z,8.10
2022-11-24T23:41:12.936Z,8.09
2022-11-24T23:43:41.615Z,8.12
2022-11-24T23:46:12.278Z,8.15
2022-11-24T23:48:39.782Z,8.15
2022-11-24T23:51:12.759Z,8.10
2022-11-24T23:53:39.479Z,8.16
2022-11-24T23:56:06.551Z,8.21
2022-11-24T23:58:33.962Z,8.21
